Time;durP1;ratioP1;P1;durP2;ratioP2;P2;SDS_P1;SDS_P2;PMS_P1;PMS_P2;Temp;Humidity;BMP_temperature;BMP_pressure;BME280_temperature;BME280_humidity;BME280_pressure;Samples;Min_cycle;Max_cycle;Signal;HPM_P1;HPM_P2
2023/03/13 00:00:19;;;;;;;18.13;3.38;;;9.10;99.90;;;;;;4941155;28;20059;-37
2023/03/13 00:02:45;;;;;;;12.68;2.17;;;9.10;99.90;;;;;;4938445;29;20073;-37
2023/03/13 00:05:13;;;;;;;22.95;3.38;;;9.10;99.90;;;;;;4941038;29;20055;-37
2023/03/13 00:07:39;;;;;;;13.45;2.60;;;9.10;99.90;;;;;;4938723;29;20623;-37
2023/03/13 00:10:05;;;;;;;14.30;2.45;;;9.10;99.90;;;;;;4943416;29;20154;-37
2023/03/13 00:12:31;;;;;;;13.05;2.65;;;9.10;99.90;;;;;;4924415;29;20063;-36
2023/03/13 00:14:57;;;;;;;15.38;3.00;;;9.10;99.90;;;;;;4937154;29;20055;-36
2023/03/13 00:17:22;;;;;;;14.20;2.58;;;9.10;99.90;;;;;;4939776;29;20153;-36
2023/03/13 00:19:49;;;;;;;13.85;2.60;;;9.10;99.90;;;;;;4941622;29;20118;-37
2023/03/13 00:22:15;;;;;;;12.15;4.05;;;9.00;99.90;;;;;;4936463;29;20138;-36
2023/03/13 00:24:41;;;;;;;12.57;3.05;;;9.00;99.90;;;;;;4938471;29;20055;-37
2023/03/13 00:27:06;;;;;;;12.85;2.58;;;9.00;99.90;;;;;;4936229;29;20063;-36
2023/03/13 00:29:33;;;;;;;10.70;2.67;;;9.00;99.90;;;;;;4939482;29;20055;-36
2023/03/13 00:32:00;;;;;;;14.18;2.55;;;9.00;99.90;;;;;;4939106;29;20055;-37
2023/03/13 00:34:26;;;;;;;16.10;2.42;;;9.00;99.90;;;;;;4941217;29;20472;-37
2023/03/13 00:36:53;;;;;;;17.20;2.63;;;8.90;99.90;;;;;;4939231;28;20488;-38
2023/03/13 00:39:19;;;;;;;11.43;2.25;;;8.90;99.90;;;;;;4940077;29;20035;-37
2023/03/13 00:41:45;;;;;;;16.98;2.85;;;9.00;99.90;;;;;;4939607;29;20047;-37
2023/03/13 00:44:10;;;;;;;13.32;3.20;;;9.00;99.90;;;;;;4941596;29;20071;-41
2023/03/13 00:46:36;;;;;;;16.42;3.70;;;9.00;99.90;;;;;;4939642;29;20073;-37
2023/03/13 00:49:02;;;;;;;12.95;4.47;;;8.90;99.90;;;;;;4937998;29;20448;-37
2023/03/13 00:51:28;;;;;;;10.40;2.92;;;9.00;99.90;;;;;;4941889;29;20207;-37
2023/03/13 00:53:55;;;;;;;15.98;1.98;;;9.00;99.90;;;;;;4940375;29;20051;-37
2023/03/13 00:56:22;;;;;;;12.73;3.17;;;9.00;99.90;;;;;;4938672;28;20055;-37
2023/03/13 00:58:48;;;;;;;18.40;2.88;;;9.00;99.90;;;;;;4929258;29;20119;-37
2023/03/13 01:01:16;;;;;;;14.00;2.55;;;9.00;99.90;;;;;;4924049;29;20059;-37
2023/03/13 01:03:44;;;;;;;17.85;2.92;;;9.00;99.90;;;;;;4937713;29;20074;-37
2023/03/13 01:06:13;;;;;;;17.38;2.75;;;9.00;99.90;;;;;;4934561;29;20055;-37
2023/03/13 01:08:39;;;;;;;14.52;2.35;;;8.90;99.90;;;;;;4939571;29;20086;-38
2023/03/13 01:11:08;;;;;;;13.70;1.70;;;9.00;99.90;;;;;;4940704;29;20050;-37
2023/03/13 01:13:34;;;;;;;13.27;2.92;;;9.00;99.90;;;;;;4939620;29;20580;-37
2023/03/13 01:16:05;;;;;;;16.52;2.70;;;8.90;99.90;;;;;;4932546;29;20048;-37
2023/03/13 01:18:32;;;;;;;20.75;2.80;;;8.90;99.90;;;;;;4923563;29;20168;-37
2023/03/13 01:20:58;;;;;;;11.07;2.28;;;8.90;99.90;;;;;;4923898;29;20066;-37
2023/03/13 01:23:25;;;;;;;11.73;2.20;;;8.90;99.90;;;;;;4926584;29;20043;-37
2023/03/13 01:25:50;;;;;;;20.58;3.15;;;8.90;99.90;;;;;;4905960;29;20107;-37
2023/03/13 01:28:16;;;;;;;12.65;2.35;;;8.80;99.90;;;;;;4929255;28;20043;-38
2023/03/13 01:30:42;;;;;;;11.48;2.33;;;8.90;99.90;;;;;;4943181;28;20051;-37
2023/03/13 01:33:07;;;;;;;15.13;2.67;;;8.80;99.90;;;;;;4941291;28;20063;-37
2023/03/13 01:35:33;;;;;;;13.88;3.38;;;8.80;99.90;;;;;;4936941;28;20062;-37
2023/03/13 01:37:59;;;;;;;12.60;2.35;;;8.80;99.90;;;;;;4935170;28;20062;-37
2023/03/13 01:40:25;;;;;;;12.80;2.70;;;8.80;99.90;;;;;;4941181;28;20071;-37
2023/03/13 01:42:56;;;;;;;13.52;3.28;;;8.80;99.90;;;;;;4936488;28;20087;-37
2023/03/13 01:45:49;;;;;;;13.93;2.97;;;8.90;99.90;;;;;;4940293;28;20051;-37
2023/03/13 01:48:15;;;;;;;14.25;2.10;;;8.90;99.90;;;;;;4936388;28;20059;-37
2023/03/13 01:50:41;;;;;;;18.10;2.58;;;8.80;99.90;;;;;;4940848;28;20062;-37
2023/03/13 01:53:07;;;;;;;16.00;3.20;;;8.80;99.90;;;;;;4937310;28;20113;-37
2023/03/13 01:55:33;;;;;;;14.90;3.13;;;8.70;99.90;;;;;;4939699;28;20051;-37
2023/03/13 01:57:59;;;;;;;11.65;2.80;;;8.70;99.90;;;;;;4937295;28;20178;-37
2023/03/13 02:00:32;;;;;;;14.10;2.53;;;8.70;99.90;;;;;;4939886;28;20059;-37
2023/03/13 02:03:05;;;;;;;14.68;2.88;;;8.60;99.90;;;;;;4941118;28;20047;-37
2023/03/13 02:05:30;;;;;;;13.10;3.03;;;8.60;99.90;;;;;;4938269;28;20159;-37
2023/03/13 02:08:00;;;;;;;11.48;2.10;;;8.60;99.90;;;;;;4938296;28;20672;-37
2023/03/13 02:10:30;;;;;;;13.98;2.97;;;8.60;99.90;;;;;;4939110;28;20075;-37
2023/03/13 02:12:56;;;;;;;11.73;2.22;;;8.60;99.90;;;;;;4938302;28;20063;-37
2023/03/13 02:15:24;;;;;;;9.38;2.20;;;8.60;99.90;;;;;;4935243;28;20195;-37
2023/03/13 02:17:51;;;;;;;13.95;2.50;;;8.60;99.90;;;;;;4941439;28;20051;-37
2023/03/13 02:20:21;;;;;;;9.40;2.20;;;8.60;99.90;;;;;;4939739;28;20066;-37
2023/03/13 02:23:29;;;;;;;9.43;2.58;;;8.60;99.90;;;;;;4938531;28;20051;-37
2023/03/13 02:25:55;;;;;;;12.65;2.50;;;8.60;99.90;;;;;;4938680;28;20131;-37
2023/03/13 02:28:26;;;;;;;11.48;2.50;;;8.60;99.90;;;;;;4937869;29;20101;-37
2023/03/13 02:30:55;;;;;;;9.45;2.67;;;8.70;99.90;;;;;;4937127;28;20495;-37
2023/03/13 02:33:25;;;;;;;8.88;2.47;;;8.70;99.90;;;;;;4937735;28;21379;-37
2023/03/13 02:35:51;;;;;;;7.85;1.98;;;8.70;99.90;;;;;;4939653;28;20047;-37
2023/03/13 02:38:21;;;;;;;10.63;2.00;;;8.80;99.90;;;;;;4953066;28;20851;-37
2023/03/13 02:40:49;;;;;;;9.93;1.98;;;8.80;99.90;;;;;;4938141;28;20527;-37
2023/03/13 02:43:17;;;;;;;11.07;2.05;;;8.90;99.90;;;;;;4937582;28;20101;-37
2023/03/13 02:45:58;;;;;;;6.70;1.85;;;8.90;99.90;;;;;;4936767;28;20564;-38
2023/03/13 02:48:43;;;;;;;4.78;2.05;;;8.80;99.90;;;;;;4934868;29;20063;-38
2023/03/13 02:51:32;;;;;;;7.25;1.88;;;8.90;99.90;;;;;;4937163;28;20055;-37
2023/03/13 02:54:01;;;;;;;7.45;2.55;;;8.90;99.90;;;;;;4938958;28;20058;-41
2023/03/13 02:56:32;;;;;;;6.57;1.35;;;9.00;99.90;;;;;;4940413;28;20142;-37
2023/03/13 02:58:58;;;;;;;4.47;1.60;;;9.00;99.90;;;;;;4939865;28;20489;-36
2023/03/13 03:01:23;;;;;;;5.03;1.48;;;9.00;99.90;;;;;;4934536;28;20061;-36
2023/03/13 03:03:49;;;;;;;4.88;1.67;;;9.10;99.90;;;;;;4933454;28;20063;-38
2023/03/13 03:06:15;;;;;;;3.05;1.33;;;9.10;99.90;;;;;;4937188;28;20061;-38
2023/03/13 03:08:42;;;;;;;2.15;0.70;;;9.20;99.90;;;;;;4940361;28;20043;-38
2023/03/13 03:11:08;;;;;;;4.78;1.30;;;9.20;99.90;;;;;;4939912;28;20052;-38
2023/03/13 03:13:34;;;;;;;4.53;1.40;;;9.40;99.90;;;;;;4939561;28;20043;-40
2023/03/13 03:16:08;;;;;;;3.97;1.08;;;9.40;99.90;;;;;;4941901;28;20517;-36
2023/03/13 03:18:34;;;;;;;5.20;1.63;;;9.40;99.90;;;;;;4941803;28;20621;-36
2023/03/13 03:21:01;;;;;;;3.85;1.42;;;9.50;99.90;;;;;;4941029;28;20071;-37
2023/03/13 03:23:26;;;;;;;6.13;1.58;;;9.50;99.90;;;;;;4942315;28;20131;-36
2023/03/13 03:25:52;;;;;;;5.30;1.60;;;9.50;99.90;;;;;;4941387;28;20087;-37
2023/03/13 03:28:18;;;;;;;5.13;1.20;;;9.60;99.90;;;;;;4940192;28;20051;-39
2023/03/13 03:30:43;;;;;;;6.85;1.70;;;9.60;99.90;;;;;;4939593;28;20058;-38
2023/03/13 03:33:09;;;;;;;4.45;1.73;;;9.70;99.90;;;;;;4940997;28;20055;-37
2023/03/13 03:35:37;;;;;;;6.57;1.60;;;9.70;99.90;;;;;;4944213;28;20063;-37
2023/03/13 03:38:03;;;;;;;3.42;1.60;;;9.70;99.90;;;;;;4940784;28;20051;-37
2023/03/13 03:40:29;;;;;;;4.60;1.90;;;9.80;99.90;;;;;;4941946;28;20078;-37
2023/03/13 03:42:54;;;;;;;3.72;1.80;;;9.90;99.90;;;;;;4940479;28;20480;-37
2023/03/13 03:45:20;;;;;;;4.82;2.28;;;9.90;99.90;;;;;;4942339;28;20594;-38
2023/03/13 03:47:46;;;;;;;5.07;2.17;;;10.00;99.90;;;;;;4943451;28;20120;-37
2023/03/13 03:50:12;;;;;;;5.70;2.00;;;10.00;99.90;;;;;;4940430;28;20047;-37
2023/03/13 03:52:37;;;;;;;4.78;2.20;;;10.00;99.90;;;;;;4941424;28;20431;-37
2023/03/13 03:55:04;;;;;;;3.67;2.00;;;10.00;99.90;;;;;;4941565;28;20102;-37
2023/03/13 03:57:29;;;;;;;4.13;1.73;;;10.10;99.90;;;;;;4943493;28;20114;-37
2023/03/13 03:59:55;;;;;;;4.15;1.73;;;10.10;99.90;;;;;;4946302;28;20050;-37
2023/03/13 04:02:21;;;;;;;4.53;1.92;;;10.10;99.90;;;;;;4939218;28;20067;-37
2023/03/13 04:04:47;;;;;;;4.82;2.17;;;10.10;99.90;;;;;;4943231;28;20408;-37
2023/03/13 04:07:12;;;;;;;5.78;2.58;;;10.10;99.90;;;;;;4940147;28;20077;-38
2023/03/13 04:09:38;;;;;;;5.07;2.22;;;10.20;99.90;;;;;;4941064;28;20047;-37
2023/03/13 04:12:04;;;;;;;7.13;2.78;;;10.20;99.90;;;;;;4937909;28;20110;-37
2023/03/13 04:14:29;;;;;;;6.53;2.85;;;10.20;99.90;;;;;;4941651;28;20047;-37
2023/03/13 04:16:55;;;;;;;5.28;2.65;;;10.20;99.90;;;;;;4941383;28;20127;-37
2023/03/13 04:19:21;;;;;;;8.02;2.92;;;10.30;99.90;;;;;;4939177;28;20512;-37
2023/03/13 04:21:46;;;;;;;5.32;2.70;;;10.30;99.90;;;;;;4943161;28;20494;-38
2023/03/13 04:24:12;;;;;;;11.73;4.28;;;10.40;99.90;;;;;;4941383;28;20138;-37
2023/03/13 04:26:38;;;;;;;8.88;3.70;;;10.50;99.90;;;;;;4939259;28;20063;-37
2023/03/13 04:29:05;;;;;;;11.30;4.53;;;10.50;99.90;;;;;;4936918;28;20142;-37
2023/03/13 04:31:32;;;;;;;11.02;3.83;;;10.70;99.90;;;;;;4940406;28;20051;-37
2023/03/13 04:33:57;;;;;;;10.65;4.90;;;10.70;99.90;;;;;;4941592;28;20111;-37
2023/03/13 04:36:23;;;;;;;9.57;4.35;;;10.70;99.90;;;;;;4939176;28;20130;-37
2023/03/13 04:38:49;;;;;;;9.70;4.20;;;10.70;99.90;;;;;;4939452;28;20137;-39
2023/03/13 04:41:14;;;;;;;9.32;4.68;;;10.80;99.90;;;;;;4938676;28;20058;-37
2023/03/13 04:43:40;;;;;;;11.50;4.57;;;10.80;99.90;;;;;;4939685;28;20110;-37
2023/03/13 04:46:06;;;;;;;14.52;4.90;;;10.80;99.90;;;;;;4939009;28;20047;-37
2023/03/13 04:48:31;;;;;;;8.13;3.97;;;10.90;99.90;;;;;;4942102;28;20062;-37
2023/03/13 04:50:57;;;;;;;11.48;4.30;;;10.90;99.90;;;;;;4938264;28;20142;-37
2023/03/13 04:53:23;;;;;;;6.80;3.00;;;10.90;99.90;;;;;;4941961;28;20105;-37
2023/03/13 04:55:49;;;;;;;8.52;3.60;;;10.90;99.90;;;;;;4941912;28;20054;-37
2023/03/13 04:58:15;;;;;;;10.40;3.85;;;10.90;99.90;;;;;;4937419;28;20416;-37
2023/03/13 05:00:41;;;;;;;10.98;4.45;;;10.90;99.90;;;;;;4940587;28;20051;-37
2023/03/13 05:03:06;;;;;;;10.75;4.47;;;10.90;99.90;;;;;;4937692;28;20070;-37
2023/03/13 05:05:35;;;;;;;8.55;3.83;;;10.90;99.90;;;;;;4941665;28;20066;-37
2023/03/13 05:08:01;;;;;;;7.85;3.40;;;10.90;99.90;;;;;;4942177;28;20051;-37
2023/03/13 05:10:27;;;;;;;10.75;3.90;;;11.00;99.90;;;;;;4940020;28;20118;-37
2023/03/13 05:12:53;;;;;;;6.10;3.75;;;11.00;99.90;;;;;;4942896;28;20055;-37
2023/03/13 05:15:18;;;;;;;7.57;4.13;;;11.00;99.90;;;;;;4938100;28;20066;-37
2023/03/13 05:17:44;;;;;;;8.55;3.42;;;11.10;99.90;;;;;;4938057;28;20055;-37
2023/03/13 05:20:10;;;;;;;7.18;3.60;;;11.10;99.90;;;;;;4938864;28;20086;-37
2023/03/13 05:22:36;;;;;;;7.13;3.42;;;11.10;99.90;;;;;;4942617;28;20082;-37
2023/03/13 05:25:04;;;;;;;9.45;3.45;;;11.10;99.90;;;;;;4939815;28;20159;-37
2023/03/13 05:27:29;;;;;;;8.52;3.13;;;11.00;99.90;;;;;;4939188;28;20138;-37
2023/03/13 05:29:55;;;;;;;8.07;3.63;;;11.10;99.90;;;;;;4938705;28;20065;-39
2023/03/13 05:32:21;;;;;;;9.23;4.00;;;11.10;99.90;;;;;;4938263;28;21559;-37
2023/03/13 05:34:46;;;;;;;6.80;3.13;;;11.10;99.90;;;;;;4939615;28;20047;-37
2023/03/13 05:37:12;;;;;;;6.82;3.00;;;11.20;99.90;;;;;;4939043;28;20058;-37
2023/03/13 05:39:38;;;;;;;6.35;3.20;;;11.20;99.90;;;;;;4942947;28;20054;-37
2023/03/13 05:42:03;;;;;;;8.77;2.42;;;11.20;99.90;;;;;;4938143;28;20043;-37
2023/03/13 05:44:29;;;;;;;9.50;3.22;;;11.20;99.90;;;;;;4938469;28;20055;-39
2023/03/13 05:46:55;;;;;;;9.60;3.50;;;11.30;99.90;;;;;;4935083;28;21152;-39
2023/03/13 05:49:20;;;;;;;6.07;3.15;;;11.30;99.90;;;;;;4934766;28;20059;-36
2023/03/13 05:51:46;;;;;;;5.82;2.58;;;11.30;99.90;;;;;;4941653;28;20122;-38
2023/03/13 05:54:12;;;;;;;4.63;2.30;;;11.30;99.90;;;;;;4937769;28;20416;-38
2023/03/13 05:56:37;;;;;;;7.97;2.63;;;11.30;99.90;;;;;;4935960;28;20055;-38
2023/03/13 05:59:03;;;;;;;9.10;2.58;;;11.40;99.90;;;;;;4939775;28;20110;-38
2023/03/13 06:01:28;;;;;;;8.23;3.15;;;11.40;99.90;;;;;;4937790;28;20062;-38
2023/03/13 06:03:54;;;;;;;7.03;2.47;;;11.40;99.90;;;;;;4939458;28;20095;-38
2023/03/13 06:06:20;;;;;;;7.60;3.40;;;11.50;99.90;;;;;;4932831;28;20051;-38
2023/03/13 06:08:45;;;;;;;6.38;2.88;;;11.60;99.90;;;;;;4941668;28;20065;-39
2023/03/13 06:11:11;;;;;;;7.43;3.42;;;11.60;99.90;;;;;;4935242;28;20047;-36
2023/03/13 06:13:37;;;;;;;5.90;2.33;;;11.60;99.90;;;;;;4937899;28;20382;-38
2023/03/13 06:16:02;;;;;;;7.00;2.40;;;11.70;99.90;;;;;;4938505;28;20618;-38
2023/03/13 06:18:28;;;;;;;6.30;2.13;;;11.70;99.90;;;;;;4934225;28;20063;-37
2023/03/13 06:20:59;;;;;;;6.72;2.42;;;11.80;99.90;;;;;;4933043;28;20055;-37
2023/03/13 06:23:25;;;;;;;8.00;2.45;;;11.90;99.90;;;;;;4936319;28;20062;-37
2023/03/13 06:25:51;;;;;;;9.98;2.67;;;11.90;99.90;;;;;;4937524;28;20043;-42
2023/03/13 06:28:16;;;;;;;6.28;2.08;;;11.90;99.90;;;;;;4932899;28;20409;-37
2023/03/13 06:30:42;;;;;;;7.47;2.22;;;11.90;99.90;;;;;;4935980;28;20059;-37
2023/03/13 06:33:08;;;;;;;6.55;1.92;;;11.90;99.90;;;;;;4938669;28;20051;-37
2023/03/13 06:35:34;;;;;;;5.57;2.10;;;11.90;99.90;;;;;;4936951;28;20118;-37
2023/03/13 06:37:59;;;;;;;10.85;2.70;;;12.00;99.90;;;;;;4937427;28;20070;-37
2023/03/13 06:40:25;;;;;;;7.47;2.08;;;12.00;99.90;;;;;;4928171;28;20058;-37
2023/03/13 06:42:51;;;;;;;7.10;2.15;;;12.00;99.90;;;;;;4935976;28;20417;-37
2023/03/13 06:45:16;;;;;;;6.20;2.25;;;12.00;99.90;;;;;;4933016;28;20054;-37
2023/03/13 06:47:42;;;;;;;8.00;2.60;;;11.90;99.90;;;;;;4935848;28;20051;-37
2023/03/13 06:50:08;;;;;;;6.20;1.85;;;12.00;99.90;;;;;;4937385;28;20059;-38
2023/03/13 06:52:34;;;;;;;7.30;1.95;;;12.10;99.90;;;;;;4936162;28;20060;-37
2023/03/13 06:54:59;;;;;;;6.38;2.53;;;12.10;99.90;;;;;;4938877;28;20069;-37
2023/03/13 06:57:25;;;;;;;5.25;1.40;;;12.10;99.90;;;;;;4936387;28;20058;-37
2023/03/13 06:59:54;;;;;;;6.57;1.70;;;12.10;99.90;;;;;;4942211;28;20059;-38
2023/03/13 07:02:20;;;;;;;5.88;2.00;;;12.10;99.90;;;;;;4940584;28;20055;-38
2023/03/13 07:04:45;;;;;;;7.70;1.70;;;12.10;99.90;;;;;;4940598;28;22896;-37
2023/03/13 07:07:11;;;;;;;7.82;1.98;;;12.10;99.90;;;;;;4937511;28;20564;-38
2023/03/13 07:09:37;;;;;;;5.90;1.40;;;12.10;99.90;;;;;;4943590;28;21148;-37
2023/03/13 07:12:04;;;;;;;4.00;1.17;;;12.20;99.90;;;;;;4943152;28;20075;-46
2023/03/13 07:14:29;;;;;;;4.63;1.25;;;12.20;99.90;;;;;;4941762;28;20047;-37
2023/03/13 07:16:58;;;;;;;8.30;1.63;;;12.20;99.90;;;;;;4937682;28;20540;-37
2023/03/13 07:19:23;;;;;;;5.55;1.70;;;12.20;99.90;;;;;;4939359;28;20615;-38
2023/03/13 07:21:51;;;;;;;5.78;1.45;;;12.20;99.90;;;;;;4941792;28;20051;-37
2023/03/13 07:24:17;;;;;;;4.95;1.35;;;12.30;99.90;;;;;;4942628;28;20043;-47
2023/03/13 07:26:42;;;;;;;7.07;1.75;;;12.30;99.90;;;;;;4941739;28;20051;-37
2023/03/13 07:29:08;;;;;;;3.67;1.38;;;12.30;99.90;;;;;;4940788;28;20047;-36
2023/03/13 07:31:34;;;;;;;7.47;1.38;;;12.40;99.90;;;;;;4939198;28;20059;-37
2023/03/13 07:34:00;;;;;;;8.10;1.63;;;12.40;99.90;;;;;;4940421;28;20083;-36
2023/03/13 07:36:26;;;;;;;4.22;1.42;;;12.40;99.90;;;;;;4947650;28;20154;-36
2023/03/13 07:38:52;;;;;;;5.95;1.52;;;12.30;99.90;;;;;;4944251;28;20047;-37
2023/03/13 07:41:19;;;;;;;12.45;1.73;;;12.30;99.90;;;;;;4935889;28;20043;-36
2023/03/13 07:43:45;;;;;;;5.30;1.63;;;12.30;99.90;;;;;;4937029;28;20089;-36
2023/03/13 07:46:13;;;;;;;5.75;2.08;;;12.20;99.90;;;;;;4944774;28;20043;-36
2023/03/13 07:48:41;;;;;;;4.65;1.60;;;12.20;99.90;;;;;;4944438;28;20059;-36
2023/03/13 07:51:11;;;;;;;5.22;1.88;;;12.10;99.90;;;;;;4948277;28;20051;-36
2023/03/13 07:53:37;;;;;;;5.50;1.40;;;12.10;99.90;;;;;;4960910;28;20437;-36
2023/03/13 07:56:06;;;;;;;5.75;1.30;;;12.00;99.90;;;;;;4938910;28;20364;-36
2023/03/13 07:58:37;;;;;;;4.97;1.52;;;12.00;99.90;;;;;;4934075;28;20189;-38
2023/03/13 08:01:11;;;;;;;5.68;1.35;;;11.90;99.90;;;;;;4943683;28;20059;-38
2023/03/13 08:03:38;;;;;;;3.10;1.50;;;11.90;99.90;;;;;;4937115;28;20059;-37
2023/03/13 08:06:07;;;;;;;3.92;1.42;;;11.80;99.90;;;;;;4936446;28;20055;-37
2023/03/13 08:08:33;;;;;;;4.88;1.15;;;11.90;99.90;;;;;;4937973;28;20054;-37
2023/03/13 08:11:20;;;;;;;6.18;2.22;;;11.90;99.90;;;;;;4939791;28;20055;-37
2023/03/13 08:13:46;;;;;;;4.13;1.50;;;11.90;99.90;;;;;;4944938;28;20114;-37
2023/03/13 08:16:20;;;;;;;4.03;1.60;;;11.90;99.90;;;;;;4942984;28;20102;-38
2023/03/13 08:18:49;;;;;;;4.68;1.55;;;11.90;99.90;;;;;;4938319;28;20043;-38
2023/03/13 08:21:26;;;;;;;4.45;1.38;;;11.90;99.90;;;;;;4939347;28;20468;-37
2023/03/13 08:23:56;;;;;;;4.10;1.50;;;12.00;99.90;;;;;;4937846;29;20055;-37
2023/03/13 08:26:27;;;;;;;2.80;1.13;;;12.00;99.90;;;;;;4916329;29;20047;-38
2023/03/13 08:28:56;;;;;;;4.43;1.15;;;12.00;99.90;;;;;;4934606;28;20468;-37
2023/03/13 08:31:24;;;;;;;4.97;1.65;;;12.00;99.90;;;;;;4941061;28;20127;-36
2023/03/13 08:33:50;;;;;;;4.63;1.35;;;12.10;99.90;;;;;;4942944;28;20051;-37
2023/03/13 08:36:20;;;;;;;6.93;1.40;;;12.10;99.90;;;;;;4941853;28;21336;-38
2023/03/13 08:38:46;;;;;;;6.20;1.23;;;12.10;99.90;;;;;;4925715;28;20062;-44
2023/03/13 08:41:18;;;;;;;5.18;1.27;;;12.20;99.90;;;;;;4938740;28;20051;-44
2023/03/13 08:43:45;;;;;;;2.60;0.98;;;12.30;99.90;;;;;;4943966;28;20497;-45
2023/03/13 08:46:11;;;;;;;5.85;1.42;;;12.40;99.90;;;;;;4935764;29;20059;-45
2023/03/13 08:48:37;;;;;;;3.38;1.23;;;12.60;99.90;;;;;;4939320;28;20578;-44
2023/03/13 08:51:06;;;;;;;2.58;1.13;;;12.70;99.90;;;;;;4943671;28;20059;-44
2023/03/13 08:53:32;;;;;;;3.88;1.20;;;12.80;99.90;;;;;;4943013;28;20053;-43
2023/03/13 08:55:59;;;;;;;8.27;1.58;;;12.90;99.90;;;;;;4940345;28;20056;-45
2023/03/13 08:58:25;;;;;;;5.60;1.02;;;12.90;99.90;;;;;;4939425;28;20518;-45
2023/03/13 09:00:51;;;;;;;3.67;1.15;;;12.80;99.90;;;;;;4946752;28;20058;-45
2023/03/13 09:03:16;;;;;;;3.97;1.30;;;12.80;99.90;;;;;;4944721;28;20056;-48
2023/03/13 09:05:42;;;;;;;4.55;1.30;;;12.80;99.90;;;;;;4940490;28;20051;-48
2023/03/13 09:08:08;;;;;;;3.30;1.13;;;12.80;99.90;;;;;;4942057;28;20054;-48
2023/03/13 09:10:35;;;;;;;3.80;1.40;;;12.70;99.90;;;;;;4935565;28;20059;-43
2023/03/13 09:13:01;;;;;;;10.02;1.33;;;12.60;99.90;;;;;;4940248;28;20066;-45
2023/03/13 09:15:27;;;;;;;5.70;1.23;;;12.70;99.90;;;;;;4938628;28;20054;-48
2023/03/13 09:17:53;;;;;;;2.95;1.00;;;12.60;99.90;;;;;;4939314;28;20055;-47
2023/03/13 09:20:18;;;;;;;5.13;1.50;;;12.60;99.90;;;;;;4938219;28;20110;-46
2023/03/13 09:22:44;;;;;;;4.55;1.13;;;12.70;99.90;;;;;;4942117;28;20419;-45
2023/03/13 09:25:11;;;;;;;3.63;0.98;;;12.70;99.90;;;;;;4941594;28;20051;-44
2023/03/13 09:27:36;;;;;;;5.28;1.10;;;12.70;99.90;;;;;;4939164;28;20496;-44
2023/03/13 09:30:02;;;;;;;2.92;1.40;;;12.70;99.90;;;;;;4944184;28;20114;-45
2023/03/13 09:32:28;;;;;;;4.93;0.70;;;12.70;99.90;;;;;;4937336;28;20146;-45
2023/03/13 09:34:54;;;;;;;6.80;0.93;;;12.80;99.90;;;;;;4939957;29;20059;-47
2023/03/13 09:37:20;;;;;;;3.83;1.00;;;12.80;99.90;;;;;;4937892;29;20457;-44
2023/03/13 09:39:48;;;;;;;5.35;1.00;;;13.00;99.90;;;;;;4938526;28;20059;-44
2023/03/13 09:42:17;;;;;;;4.57;1.00;;;13.10;99.90;;;;;;4941869;28;20416;-44
2023/03/13 09:44:48;;;;;;;5.15;1.08;;;13.10;99.90;;;;;;4942916;28;20055;-42
2023/03/13 09:47:24;;;;;;;5.10;0.95;;;13.10;99.90;;;;;;4940610;28;20059;-44
2023/03/13 09:50:02;;;;;;;5.00;1.40;;;13.20;99.90;;;;;;4937835;28;20134;-42
2023/03/13 09:52:35;;;;;;;6.45;1.48;;;13.30;99.90;;;;;;4939344;28;20053;-41
2023/03/13 09:55:21;;;;;;;7.88;1.13;;;13.50;99.90;;;;;;4934386;28;20078;-43
2023/03/13 09:58:01;;;;;;;6.50;1.17;;;13.60;99.90;;;;;;4938509;28;20150;-42
2023/03/13 10:00:33;;;;;;;5.70;1.20;;;13.80;99.90;;;;;;4937990;28;20145;-42
2023/03/13 10:03:16;;;;;;;3.50;1.00;;;13.80;99.90;;;;;;4938262;28;20061;-41
2023/03/13 10:05:51;;;;;;;1.23;0.45;;;13.90;99.90;;;;;;4936425;28;20051;-40
2023/03/13 10:08:20;;;;;;;4.63;0.93;;;13.90;99.90;;;;;;4936613;28;20051;-42
2023/03/13 10:11:03;;;;;;;7.90;1.02;;;13.90;99.90;;;;;;4937293;28;20402;-42
2023/03/13 10:14:09;;;;;;;7.38;1.20;;;13.90;99.90;;;;;;4935523;28;20056;-42
2023/03/13 10:17:04;;;;;;;6.75;1.40;;;13.90;99.90;;;;;;4902087;28;20058;-42
2023/03/13 10:19:41;;;;;;;6.97;1.10;;;13.90;99.90;;;;;;4940128;28;21243;-44
2023/03/13 10:22:17;;;;;;;5.05;0.98;;;13.90;99.90;;;;;;4938804;28;20122;-37
2023/03/13 10:25:02;;;;;;;8.15;1.17;;;13.90;99.90;;;;;;4937956;28;22447;-37
2023/03/13 10:27:28;;;;;;;8.90;1.35;;;14.00;99.90;;;;;;4937924;28;20119;-44
2023/03/13 10:29:54;;;;;;;3.33;0.82;;;14.10;99.90;;;;;;4938994;28;20064;-37
2023/03/13 10:32:20;;;;;;;6.78;1.10;;;14.20;99.90;;;;;;4938285;28;20126;-37
2023/03/13 10:34:54;;;;;;;6.80;1.00;;;14.20;99.90;;;;;;4939823;28;21128;-36
2023/03/13 10:37:26;;;;;;;8.25;1.00;;;14.10;99.90;;;;;;4936100;28;20505;-38
2023/03/13 10:39:52;;;;;;;8.18;0.95;;;14.10;99.90;;;;;;4939252;28;20059;-52
2023/03/13 10:42:32;;;;;;;4.65;1.10;;;14.20;99.90;;;;;;4941122;28;20071;-49
2023/03/13 10:45:00;;;;;;;7.32;1.23;;;14.20;99.90;;;;;;4937184;28;20130;-49
2023/03/13 10:47:26;;;;;;;3.63;0.90;;;14.30;99.90;;;;;;4946133;28;20047;-49
2023/03/13 10:49:56;;;;;;;4.45;1.05;;;14.40;99.90;;;;;;4938634;28;21926;-47
2023/03/13 10:52:45;;;;;;;4.00;0.90;;;14.50;99.90;;;;;;4938316;28;20386;-50
2023/03/13 10:55:22;;;;;;;3.53;0.70;;;14.50;99.90;;;;;;4935881;28;20047;-47
2023/03/13 10:58:04;;;;;;;5.47;0.90;;;14.60;99.90;;;;;;4941199;28;20059;-50
2023/03/13 11:00:34;;;;;;;;;;;14.70;99.90;;;;;;4942404;28;20485;-51
2023/03/13 11:03:05;;;;;;;4.63;1.35;;;14.80;99.90;;;;;;4942977;28;19927;-46
2023/03/13 11:05:42;;;;;;;3.28;0.60;;;14.80;99.90;;;;;;4940184;28;20485;-46
2023/03/13 11:08:27;;;;;;;3.85;1.08;;;14.90;99.90;;;;;;4939880;28;20054;-45
2023/03/13 11:11:18;;;;;;;4.90;0.70;;;15.00;99.90;;;;;;4935757;28;20441;-45
2023/03/13 11:13:44;;;;;;;4.63;0.60;;;15.20;99.90;;;;;;4944168;28;20079;-48
2023/03/13 11:16:16;;;;;;;3.50;0.43;;;15.30;99.90;;;;;;4940990;28;20055;-45
2023/03/13 11:18:55;;;;;;;3.08;0.43;;;15.50;99.30;;;;;;4936498;28;20079;-48
2023/03/13 11:21:51;;;;;;;2.42;0.70;;;15.70;96.60;;;;;;4940216;29;20110;-49
2023/03/13 11:24:40;;;;;;;4.30;1.17;;;15.80;95.60;;;;;;4938326;29;20424;-49
2023/03/13 11:27:30;;;;;;;3.20;0.90;;;15.80;94.90;;;;;;4938449;29;20058;-51
2023/03/13 11:30:07;;;;;;;1.25;0.40;;;15.90;95.40;;;;;;4925139;29;20052;-47
2023/03/13 11:32:53;;;;;;;3.35;0.50;;;16.00;94.50;;;;;;4904372;29;20137;-46
2023/03/13 11:35:45;;;;;;;4.80;0.80;;;16.00;91.60;;;;;;4926795;29;20186;-44
2023/03/13 11:38:29;;;;;;;5.88;0.90;;;16.10;91.90;;;;;;4933592;29;20059;-46
2023/03/13 11:41:05;;;;;;;4.13;0.60;;;16.10;91.10;;;;;;4921873;29;20170;-47
2023/03/13 11:43:41;;;;;;;2.85;0.60;;;16.20;92.00;;;;;;4928091;29;20130;-44
2023/03/13 11:47:04;;;;;;;6.22;0.60;;;16.20;91.90;;;;;;4941072;28;20055;-48
2023/03/13 11:49:50;;;;;;;7.53;0.85;;;16.00;91.50;;;;;;4860792;29;20065;-48
2023/03/13 11:52:53;;;;;;;3.13;0.57;;;15.90;92.90;;;;;;4933847;28;20051;-44
2023/03/13 11:55:41;;;;;;;;;;;16.00;92.70;;;;;;4943422;28;20067;-46
2023/03/13 11:58:39;;;;;;;2.88;0.50;;;16.00;90.70;;;;;;4942147;28;19930;-47
2023/03/13 12:01:17;;;;;;;5.72;0.68;;;16.00;91.00;;;;;;4940059;28;20497;-48
2023/03/13 12:03:57;;;;;;;2.05;0.50;;;16.00;91.00;;;;;;4944795;28;20051;-48
2023/03/13 12:07:01;;;;;;;3.03;0.70;;;16.00;91.40;;;;;;4943968;28;20178;-46
2023/03/13 12:09:35;;;;;;;2.08;0.40;;;16.10;89.00;;;;;;4904074;28;20054;-48
2023/03/13 12:12:29;;;;;;;2.63;0.90;;;16.20;86.40;;;;;;4941046;28;20544;-44
2023/03/13 12:15:03;;;;;;;1.95;0.40;;;16.40;88.30;;;;;;4932690;28;20142;-45
2023/03/13 12:17:45;;;;;;;5.20;0.75;;;16.60;86.20;;;;;;4921502;29;20110;-45
2023/03/13 12:20:30;;;;;;;4.50;0.93;;;16.70;88.00;;;;;;4939867;28;20051;-46
2023/03/13 12:23:18;;;;;;;4.30;0.50;;;16.60;87.30;;;;;;4939756;28;20058;-47
2023/03/13 12:25:59;;;;;;;3.05;0.85;;;16.50;87.70;;;;;;4943587;28;20567;-50
2023/03/13 12:28:29;;;;;;;3.05;0.50;;;16.50;87.50;;;;;;4935537;28;20619;-47
2023/03/13 12:31:12;;;;;;;3.13;0.50;;;16.40;90.00;;;;;;4932717;29;20043;-49
2023/03/13 12:34:08;;;;;;;3.22;0.70;;;16.20;90.50;;;;;;4942910;28;20536;-49
2023/03/13 12:36:59;;;;;;;2.70;1.30;;;16.10;90.50;;;;;;4938683;28;20110;-45
2023/03/13 12:39:40;;;;;;;3.88;0.50;;;16.00;90.80;;;;;;4940076;28;20053;-49
2023/03/13 12:42:48;;;;;;;3.65;0.32;;;16.00;92.30;;;;;;4942834;28;20066;-49
2023/03/13 12:45:17;;;;;;;3.45;0.95;;;16.00;90.10;;;;;;4940317;28;20473;-51
2023/03/13 12:47:56;;;;;;;5.55;0.90;;;16.10;91.00;;;;;;4940296;28;20102;-46
2023/03/13 12:50:40;;;;;;;3.72;0.63;;;16.20;90.10;;;;;;4937908;28;20649;-44
2023/03/13 12:53:27;;;;;;;7.95;1.45;;;16.30;86.80;;;;;;4930859;28;20485;-48
2023/03/13 12:56:13;;;;;;;6.70;1.20;;;16.60;86.60;;;;;;4937384;28;20090;-49
2023/03/13 12:59:02;;;;;;;5.50;1.00;;;17.20;84.60;;;;;;4939812;28;20532;-47
2023/03/13 13:01:36;;;;;;;6.38;2.22;;;17.40;72.30;;;;;;4930254;28;20058;-45
2023/03/13 13:04:10;;;;;;;4.90;1.17;;;17.10;73.20;;;;;;4938490;28;20494;-48